SBA weather

Santa Barbara Municipal Airport
Santa Barbara, California, United States

Public forecast

Using degrees Fahrenheit for public forecast. Weather courtesy of forecast.io.

Current aviation weather report (METAR) for Santa Barbara Municipal Airport

Retrieved 2019/11/14 04:53 UTC (32 minutes ago):

KSBA 140453Z 00000KT 9SM OVC011 14/11 A3003 RMK AO2 SLP167 T01390111

Aviation forecast (TAF) for Santa Barbara Municipal Airport

Retrieved 2019-11-14 00:36 UTC (5 hours ago):

TAF KSBA 132333Z 1400/1424 26012KT P6SM BKN011 BKN200 FM140400 VRB03KT 6SM BR OVC007 FM141000 VRB03KT 3SM BR OVC004 FM141700 VRB03KT P6SM BKN015 BKN250 FM142100 24008KT P6SM OVC250